Smith Reynolds Airport
KINT : rendu visible

Aérodrome :











RETROUVEZ-NOUS SUR...

 
LOGIN :

S'inscrire | Disclaimer

   EN    FR    IT 

 









Légende :    VFR   VFR Marginal   IFR   IFR Intensif   IFR Très Intensif
Visi : 
Plafond : 
>= 8 km
>= 3000ft
5 à 8 km
1000 à 3000 ft
1500m à 5 km
500 à 1000 ft
800 à 1500m
200 à 500 ft
< 800m
< 200 ft
Symboles :   Orages  Brouillard  Fortes neiges  Fortes précipitations  Vent > 20 kt






- Altitude de l'aérodrome : 969 ft
- Code IATA : INT


KINT - Smith Reynolds

DERNIER METAR :
  • 300154Z AUTO 16006KT 10SM -RA BKN110 22/22 A3004 RMK AO2 SLP163 P0005 T02170217

METARs EXPIRÉS :
  • 300110Z 19005KT 8SM -RA SCT011 SCT042 OVC095 22/22 A3006 RMK AO2 P0002 T02220217
  • 300054Z 17005KT 7SM -RA BKN011 OVC100 23/22 A3006 RMK AO2 RAB35 CIG 009V015 SLP170 P0001 T02280217
  • 292354Z 17006KT 10SM FEW014 BKN095 23/21 A3003 RMK AO2 LTG DSNT W SLP160 60000 T02330211 10267 20233 53011

TAF KINT
Valide du 30 à 00h jusqu'au 31 à 00h UTC


292338Z 3000/3024 17006KT P6SM VCTS SCT030CB BKN090
TEMPO 3000/3002 5SM -SHRA BR BKN015 BKN030
FM300200 20005KT P6SM BKN060 BKN120
FM300700 00000KT 5SM BR BKN007
FM301100 31005KT P6SM FEW009 SCT090
FM301500 34010KT P6SM BKN060
FM302100 35008KT P6SM SCT070
FIR KZTL / Amérique du Nord



MET'MAP, la Météo Aéronautique d'un coup d'oeil ! - Copyright ORBIFLY Décembre 2007 - Disclaimer

ORBIFLY MET'MAP TEAM :

Programmation & Développement : Alexandra Zaïnal
Sur une idée originale de : Baudouin d'Aumeries
Assistance à la programmation : Marc-Olivier Méhu
Soutien technique & logistique : Manuel Goepfert

Contact : metmap@orbifly.com




SOURCES & CREDITS :

   NOAA       Earth
Advisory